createdAt,value
2018-12-08T00:00:38.299Z,5.67
2018-12-08T00:03:07.890Z,5.93
2018-12-08T00:05:37.249Z,5.95
2018-12-08T00:08:06.748Z,5.57
2018-12-08T00:10:36.410Z,5.70
2018-12-08T00:13:05.800Z,6.03
2018-12-08T00:15:35.351Z,5.80
2018-12-08T00:18:04.867Z,5.50
2018-12-08T00:20:34.239Z,5.10
2018-12-08T00:23:03.640Z,4.97
2018-12-08T00:25:32.991Z,5.20
2018-12-08T00:28:02.392Z,5.37
2018-12-08T00:30:43.352Z,5.37
2018-12-08T00:33:13.000Z,4.90
2018-12-08T00:35:44.982Z,4.67
2018-12-08T00:38:14.381Z,4.65
2018-12-08T00:40:44.139Z,4.77
2018-12-08T00:43:13.514Z,4.60
2018-12-08T00:45:42.890Z,4.63
2018-12-08T00:48:12.955Z,5.10
2018-12-08T00:50:42.475Z,5.03
2018-12-08T00:53:12.339Z,5.10
2018-12-08T00:55:41.712Z,5.03
2018-12-08T00:58:11.113Z,4.90
2018-12-08T01:00:41.355Z,4.67
2018-12-08T01:03:11.168Z,4.50
2018-12-08T01:05:40.559Z,4.83
2018-12-08T01:08:10.069Z,4.47
2018-12-08T01:10:39.462Z,4.65
2018-12-08T01:13:08.842Z,4.40
2018-12-08T01:15:38.337Z,4.50
2018-12-08T01:18:07.690Z,4.60
2018-12-08T01:20:37.383Z,3.90
2018-12-08T01:23:07.082Z,4.07
2018-12-08T01:25:36.600Z,3.50
2018-12-08T01:28:06.221Z,3.93
2018-12-08T01:30:36.225Z,3.85
2018-12-08T01:33:05.702Z,3.90
2018-12-08T01:35:35.810Z,3.40
2018-12-08T01:38:05.255Z,3.50
2018-12-08T01:40:34.743Z,4.03
2018-12-08T01:43:04.890Z,3.60
2018-12-08T01:45:40.862Z,3.97
2018-12-08T01:48:10.238Z,3.80
2018-12-08T01:50:39.698Z,3.10
2018-12-08T01:53:09.194Z,3.73
2018-12-08T01:55:38.782Z,3.73
2018-12-08T01:58:11.654Z,3.50
2018-12-08T02:00:41.090Z,4.60
2018-12-08T02:03:10.527Z,3.87
2018-12-08T02:05:40.499Z,3.83
2018-12-08T02:08:09.971Z,4.00
2018-12-08T02:10:39.463Z,4.33
2018-12-08T02:13:09.637Z,4.20
2018-12-08T02:15:39.127Z,4.53
2018-12-08T02:18:08.677Z,4.33
2018-12-08T02:20:42.536Z,3.90
2018-12-08T02:23:11.926Z,3.77
2018-12-08T02:25:43.548Z,4.53
2018-12-08T02:28:13.325Z,4.23
2018-12-08T02:30:43.648Z,4.60
2018-12-08T02:33:13.769Z,3.90
2018-12-08T02:35:43.201Z,3.80
2018-12-08T02:38:13.126Z,3.70
2018-12-08T02:40:43.151Z,3.60
2018-12-08T02:43:19.136Z,2.73
2018-12-08T02:45:48.874Z,3.00
2018-12-08T02:48:18.653Z,2.50
2018-12-08T02:50:48.200Z,1.20
2018-12-08T02:53:18.621Z,0.88
2018-12-08T02:55:48.453Z,1.10
2018-12-08T02:58:18.672Z,0.60
2018-12-08T03:00:48.168Z,0.60
2018-12-08T03:03:18.798Z,0.62
2018-12-08T03:05:54.975Z,0.73
2018-12-08T03:08:24.583Z,0.93
2018-12-08T03:10:55.099Z,0.60
2018-12-08T03:13:24.853Z,0.60
2018-12-08T03:15:55.260Z,0.60
2018-12-08T03:18:24.968Z,0.65
2018-12-08T03:20:55.048Z,0.70
2018-12-08T03:23:26.000Z,0.50
2018-12-08T03:25:55.566Z,0.50
2018-12-08T03:28:25.314Z,0.63
2018-12-08T03:30:55.031Z,0.70
2018-12-08T03:33:25.062Z,0.80
2018-12-08T03:35:55.395Z,0.70
2018-12-08T03:38:27.143Z,0.55
2018-12-08T03:40:56.422Z,0.70
2018-12-08T03:43:27.612Z,0.67
2018-12-08T03:46:02.415Z,0.63
2018-12-08T03:48:31.936Z,0.90
2018-12-08T03:51:01.309Z,0.73
2018-12-08T03:53:30.717Z,0.47
2018-12-08T03:56:00.991Z,0.70
2018-12-08T03:58:30.605Z,0.75
2018-12-08T04:01:00.011Z,0.50
2018-12-08T04:03:29.862Z,0.60
2018-12-08T04:05:59.458Z,0.60
2018-12-08T04:08:32.843Z,0.62
2018-12-08T04:11:02.398Z,0.90
2018-12-08T04:13:31.982Z,0.70
2018-12-08T04:16:01.633Z,0.67
2018-12-08T04:18:31.861Z,0.93
2018-12-08T04:21:01.872Z,0.87
2018-12-08T04:23:31.478Z,0.80
2018-12-08T04:26:00.926Z,1.10
2018-12-08T04:28:30.503Z,0.70
2018-12-08T04:31:00.654Z,1.00
2018-12-08T04:33:30.444Z,1.02
2018-12-08T04:36:00.539Z,1.23
2018-12-08T04:38:31.711Z,0.90
2018-12-08T04:41:01.156Z,0.90
2018-12-08T04:43:30.558Z,1.10
2018-12-08T04:46:00.072Z,1.30
2018-12-08T04:48:29.574Z,0.90
2018-12-08T04:50:58.987Z,1.10
2018-12-08T04:53:28.406Z,1.07
2018-12-08T04:55:57.961Z,1.40
2018-12-08T04:58:27.502Z,1.30
2018-12-08T05:00:57.022Z,1.20
2018-12-08T05:03:26.418Z,1.20
2018-12-08T05:05:55.827Z,1.00
2018-12-08T05:08:25.235Z,1.15
2018-12-08T05:10:54.645Z,1.40
2018-12-08T05:13:24.157Z,1.47
2018-12-08T05:15:53.819Z,1.53
2018-12-08T05:18:23.810Z,1.80
2018-12-08T05:20:53.753Z,1.33
2018-12-08T05:23:23.326Z,1.60
2018-12-08T05:25:53.027Z,1.73
2018-12-08T05:28:22.554Z,1.53
2018-12-08T05:30:52.893Z,1.70
2018-12-08T05:33:22.424Z,2.10
2018-12-08T05:35:51.919Z,1.87
2018-12-08T05:38:21.982Z,1.53
2018-12-08T05:40:51.490Z,2.10
2018-12-08T05:43:20.886Z,2.17
2018-12-08T05:45:51.051Z,2.08
2018-12-08T05:48:21.755Z,2.37
2018-12-08T05:50:51.734Z,2.60
2018-12-08T05:53:21.095Z,2.10
2018-12-08T05:55:50.447Z,1.80
2018-12-08T05:58:19.810Z,2.13
2018-12-08T06:00:49.196Z,2.73
2018-12-08T06:03:19.240Z,2.08
2018-12-08T06:05:48.682Z,2.10
2018-12-08T06:08:19.049Z,2.03
2018-12-08T06:10:53.923Z,2.10
2018-12-08T06:13:23.344Z,2.80
2018-12-08T06:15:52.703Z,2.03
2018-12-08T06:18:22.842Z,2.53
2018-12-08T06:20:52.226Z,2.57
2018-12-08T06:23:22.138Z,1.87
2018-12-08T06:25:52.045Z,2.53
2018-12-08T06:28:32.926Z,2.90
2018-12-08T06:31:04.202Z,2.93
2018-12-08T06:33:34.162Z,3.15
2018-12-08T06:36:03.625Z,3.43
2018-12-08T06:38:33.474Z,3.10
2018-12-08T06:41:03.264Z,2.30
2018-12-08T06:43:32.698Z,2.72
2018-12-08T06:46:02.539Z,2.87
2018-12-08T06:48:31.942Z,3.10
2018-12-08T06:51:01.330Z,3.20
2018-12-08T06:53:30.743Z,3.40
2018-12-08T06:56:00.792Z,3.97
2018-12-08T06:58:30.245Z,3.00
2018-12-08T07:00:59.777Z,3.03
2018-12-08T07:03:29.349Z,2.33
2018-12-08T07:05:58.742Z,2.43
2018-12-08T07:08:32.598Z,3.85
2018-12-08T07:11:02.013Z,2.73
2018-12-08T07:13:34.348Z,2.80
2018-12-08T07:16:03.761Z,4.00
2018-12-08T07:18:33.214Z,3.90
2018-12-08T07:21:03.497Z,3.60
2018-12-08T07:23:33.838Z,3.07
2018-12-08T07:26:03.347Z,3.57
2018-12-08T07:28:32.796Z,3.12
2018-12-08T07:31:02.418Z,3.80
2018-12-08T07:33:31.779Z,2.80
2018-12-08T07:36:01.170Z,3.33
2018-12-08T07:38:31.247Z,3.90
2018-12-08T07:41:00.571Z,3.83
2018-12-08T07:43:30.182Z,5.28
2018-12-08T07:45:59.967Z,3.73
2018-12-08T07:48:29.309Z,3.77
2018-12-08T07:50:58.798Z,4.20
2018-12-08T07:53:28.235Z,3.97
2018-12-08T07:55:57.748Z,4.80
2018-12-08T07:58:27.242Z,4.00
2018-12-08T08:00:56.630Z,4.07
2018-12-08T08:03:26.375Z,3.83
2018-12-08T08:05:55.818Z,4.10
2018-12-08T08:08:25.237Z,4.77
2018-12-08T08:10:54.621Z,4.30
2018-12-08T08:13:24.146Z,4.27
2018-12-08T08:15:53.758Z,4.70
2018-12-08T08:18:23.234Z,4.63
2018-12-08T08:20:53.017Z,4.60
2018-12-08T08:23:22.395Z,5.40
2018-12-08T08:25:51.716Z,4.67
2018-12-08T08:28:21.230Z,4.27
2018-12-08T08:30:50.644Z,5.57
2018-12-08T08:33:20.035Z,4.97
2018-12-08T08:35:50.226Z,4.17
2018-12-08T08:38:20.159Z,4.53
2018-12-08T08:40:49.556Z,4.53
2018-12-08T08:43:19.521Z,3.90
2018-12-08T08:45:49.370Z,4.70
2018-12-08T08:48:19.413Z,4.07
2018-12-08T08:50:49.046Z,3.80
2018-12-08T08:53:19.441Z,4.08
2018-12-08T08:55:49.004Z,4.50
2018-12-08T08:58:19.861Z,4.62
2018-12-08T09:00:49.702Z,4.10
2018-12-08T09:03:19.455Z,3.87
2018-12-08T09:05:49.374Z,4.60
2018-12-08T09:08:19.728Z,3.73
2018-12-08T09:10:49.124Z,3.03
2018-12-08T09:13:18.508Z,3.90
2018-12-08T09:15:49.872Z,3.57
2018-12-08T09:18:20.131Z,4.00
2018-12-08T09:20:49.915Z,3.67
2018-12-08T09:23:19.638Z,3.70
2018-12-08T09:25:49.468Z,3.27
2018-12-08T09:31:04.377Z,3.23
2018-12-08T09:33:33.745Z,3.83
2018-12-08T09:36:03.195Z,3.30
2018-12-08T09:38:32.646Z,2.60
2018-12-08T09:41:02.167Z,3.90
2018-12-08T09:43:31.595Z,3.30
2018-12-08T09:46:00.967Z,3.63
2018-12-08T09:48:30.360Z,3.13
2018-12-08T09:50:59.742Z,2.87
2018-12-08T09:53:29.393Z,3.80
2018-12-08T09:56:04.326Z,3.27
2018-12-08T09:58:33.766Z,3.63
2018-12-08T10:01:03.435Z,3.47
2018-12-08T10:03:33.169Z,3.60
2018-12-08T10:06:03.241Z,2.83
2018-12-08T10:08:32.675Z,2.58
2018-12-08T10:11:02.380Z,3.10
2018-12-08T10:13:32.485Z,2.50
2018-12-08T10:16:01.942Z,2.37
2018-12-08T10:18:31.406Z,2.37
2018-12-08T10:21:00.754Z,2.53
2018-12-08T10:23:30.067Z,2.70
2018-12-08T10:25:59.500Z,3.60
2018-12-08T10:28:28.858Z,2.17
2018-12-08T10:30:58.234Z,2.40
2018-12-08T10:33:28.343Z,3.25
2018-12-08T10:35:57.980Z,2.90
2018-12-08T10:38:27.779Z,2.60
2018-12-08T10:40:58.799Z,2.47
2018-12-08T10:43:28.168Z,2.90
2018-12-08T10:45:57.495Z,2.53
2018-12-08T10:48:26.836Z,2.90
2018-12-08T10:50:56.152Z,2.07
2018-12-08T10:53:26.500Z,2.40
2018-12-08T10:55:55.829Z,2.30
2018-12-08T10:58:25.170Z,2.47
2018-12-08T11:00:59.875Z,2.30
2018-12-08T11:03:35.650Z,2.20
2018-12-08T11:06:05.175Z,2.60
2018-12-08T11:08:35.216Z,2.27
2018-12-08T11:11:04.610Z,2.30
2018-12-08T11:13:34.078Z,2.37
2018-12-08T11:16:03.583Z,2.23
2018-12-08T11:18:33.016Z,1.87
2018-12-08T11:21:02.498Z,2.63
2018-12-08T11:23:34.997Z,1.67
2018-12-08T11:26:04.602Z,1.70
2018-12-08T11:28:34.017Z,1.57
2018-12-08T11:31:03.420Z,1.30
2018-12-08T11:33:32.952Z,1.42
2018-12-08T11:36:04.561Z,1.90
2018-12-08T11:38:34.301Z,0.87
2018-12-08T11:41:03.752Z,1.60
2018-12-08T11:43:33.353Z,1.20
2018-12-08T11:46:02.771Z,1.23
2018-12-08T11:48:32.147Z,0.70
2018-12-08T11:51:01.514Z,0.80
2018-12-08T11:53:30.914Z,0.70
2018-12-08T11:56:00.286Z,0.50
2018-12-08T11:58:29.634Z,0.60
2018-12-08T12:00:59.287Z,1.07
2018-12-08T12:03:28.941Z,1.20
2018-12-08T12:05:58.341Z,1.10
2018-12-08T12:08:27.770Z,1.10
2018-12-08T12:10:57.105Z,0.80
2018-12-08T12:13:26.522Z,1.00
2018-12-08T12:15:55.973Z,0.83
2018-12-08T12:18:25.671Z,0.70
2018-12-08T12:20:55.046Z,0.90
2018-12-08T12:23:24.450Z,0.77
2018-12-08T12:25:54.424Z,0.50
2018-12-08T12:28:23.923Z,0.40
2018-12-08T12:30:53.538Z,0.60
2018-12-08T12:33:22.977Z,0.40
2018-12-08T12:35:52.384Z,0.40
2018-12-08T12:38:21.759Z,0.50
2018-12-08T12:40:51.143Z,0.40
2018-12-08T12:43:20.741Z,0.43
2018-12-08T12:45:50.231Z,0.70
2018-12-08T12:48:20.080Z,0.40
2018-12-08T12:50:49.462Z,0.47
2018-12-08T12:53:20.828Z,0.50
2018-12-08T12:55:50.150Z,0.65
2018-12-08T12:58:20.138Z,0.60
2018-12-08T13:00:49.752Z,0.50
2018-12-08T13:03:20.230Z,0.30
2018-12-08T13:05:49.568Z,0.50
2018-12-08T13:08:18.904Z,0.30
2018-12-08T13:10:48.927Z,0.43
2018-12-08T13:13:18.405Z,0.50
2018-12-08T13:15:48.284Z,0.73
2018-12-08T13:18:17.965Z,0.40
2018-12-08T13:20:47.598Z,0.50
2018-12-08T13:23:16.983Z,0.50
2018-12-08T13:25:46.388Z,0.50
2018-12-08T13:28:15.772Z,0.43
2018-12-08T13:30:45.149Z,0.40
2018-12-08T13:33:14.525Z,0.40
2018-12-08T13:35:59.413Z,0.60
2018-12-08T13:38:28.774Z,0.60
2018-12-08T13:40:58.154Z,0.40
2018-12-08T13:43:28.026Z,0.40
2018-12-08T13:45:57.448Z,0.37
2018-12-08T13:48:27.396Z,0.40
2018-12-08T13:50:57.074Z,0.40
2018-12-08T13:53:27.039Z,0.50
2018-12-08T13:55:56.462Z,0.40
2018-12-08T13:58:26.074Z,0.40
2018-12-08T14:00:55.463Z,0.40
2018-12-08T14:03:24.837Z,0.37
2018-12-08T14:05:54.299Z,0.30
2018-12-08T14:08:23.980Z,0.40
2018-12-08T14:10:53.394Z,0.50
2018-12-08T14:13:23.414Z,0.40
2018-12-08T14:15:52.857Z,0.50
2018-12-08T14:18:23.432Z,0.60
2018-12-08T14:20:52.828Z,0.90
2018-12-08T14:23:22.171Z,0.77
2018-12-08T14:25:51.549Z,0.83
2018-12-08T14:28:21.195Z,0.80
2018-12-08T14:30:50.675Z,0.80
2018-12-08T14:33:20.678Z,0.90
2018-12-08T14:35:50.112Z,1.00
2018-12-08T14:38:20.547Z,1.20
2018-12-08T14:40:49.966Z,1.30
2018-12-08T14:43:19.336Z,1.20
2018-12-08T14:45:49.501Z,1.20
2018-12-08T14:48:18.942Z,1.40
2018-12-08T14:50:48.617Z,1.10
2018-12-08T14:53:18.087Z,1.17
2018-12-08T14:55:47.483Z,1.37
2018-12-08T14:58:17.096Z,1.27
2018-12-08T15:00:46.933Z,1.30
2018-12-08T15:03:16.295Z,1.70
2018-12-08T15:05:45.914Z,1.80
2018-12-08T15:08:15.282Z,1.63
2018-12-08T15:10:45.327Z,2.00
2018-12-08T15:13:14.716Z,2.30
2018-12-08T15:15:44.019Z,2.10
2018-12-08T15:18:13.433Z,2.33
2018-12-08T15:20:42.802Z,2.57
2018-12-08T15:23:12.811Z,2.40
2018-12-08T15:25:42.236Z,1.93
2018-12-08T15:28:12.231Z,2.30
2018-12-08T15:30:41.690Z,2.20
2018-12-08T15:33:11.075Z,1.77
2018-12-08T15:35:40.615Z,2.30
2018-12-08T15:38:10.218Z,1.70
2018-12-08T15:40:39.888Z,1.83
2018-12-08T15:43:09.591Z,2.03
2018-12-08T15:45:39.093Z,1.60
2018-12-08T15:48:08.619Z,1.40
2018-12-08T15:50:38.470Z,1.43
2018-12-08T15:53:07.956Z,1.33
2018-12-08T15:55:38.026Z,1.60
2018-12-08T15:58:07.445Z,1.60
2018-12-08T16:00:36.863Z,2.10
2018-12-08T16:03:06.981Z,1.70
2018-12-08T16:05:38.315Z,1.67
2018-12-08T16:08:07.944Z,2.00
2018-12-08T16:10:37.678Z,2.40
2018-12-08T16:13:07.308Z,2.03
2018-12-08T16:15:36.733Z,1.80
2018-12-08T16:18:06.364Z,1.63
2018-12-08T16:20:35.943Z,1.80
2018-12-08T16:23:05.534Z,1.90
2018-12-08T16:25:34.900Z,1.90
2018-12-08T16:28:04.331Z,1.90
2018-12-08T16:30:33.682Z,1.55
2018-12-08T16:33:03.027Z,2.30
2018-12-08T16:35:33.366Z,1.80
2018-12-08T16:38:03.303Z,1.80
2018-12-08T16:40:33.124Z,1.87
2018-12-08T16:43:02.579Z,1.60
2018-12-08T16:45:32.278Z,1.80
2018-12-08T16:48:01.728Z,1.70
2018-12-08T16:50:31.210Z,1.70
2018-12-08T16:53:00.573Z,1.87
2018-12-08T16:55:30.102Z,2.12
2018-12-08T16:57:59.665Z,2.07
2018-12-08T17:00:30.326Z,1.95
2018-12-08T17:02:59.842Z,2.40
2018-12-08T17:05:29.635Z,2.20
2018-12-08T17:07:59.082Z,2.27
2018-12-08T17:10:28.483Z,2.25
2018-12-08T17:12:57.918Z,2.20
2018-12-08T17:15:27.280Z,2.30
2018-12-08T17:17:56.618Z,2.20
2018-12-08T17:20:26.163Z,2.00
2018-12-08T17:22:55.596Z,1.90
2018-12-08T17:25:25.471Z,1.90
2018-12-08T17:27:54.982Z,2.00
2018-12-08T17:30:24.743Z,2.03
2018-12-08T17:32:54.306Z,2.20
2018-12-08T17:35:23.784Z,2.40
2018-12-08T17:37:53.165Z,2.43
2018-12-08T17:40:22.753Z,2.20
2018-12-08T17:42:52.186Z,2.17
2018-12-08T17:45:21.575Z,2.47
2018-12-08T17:47:51.243Z,2.30
2018-12-08T17:50:21.701Z,1.67
2018-12-08T17:52:51.754Z,1.80
2018-12-08T17:55:21.483Z,2.10
2018-12-08T17:57:51.758Z,1.57
2018-12-08T18:00:22.953Z,2.02
2018-12-08T18:02:52.536Z,1.93
2018-12-08T18:05:22.147Z,2.00
2018-12-08T18:07:52.120Z,1.70
2018-12-08T18:10:22.046Z,2.03
2018-12-08T18:12:51.490Z,2.00
2018-12-08T18:15:22.030Z,1.83
2018-12-08T18:17:51.438Z,1.53
2018-12-08T18:20:21.772Z,1.53
2018-12-08T18:22:51.171Z,1.70
2018-12-08T18:25:21.498Z,2.07
2018-12-08T18:27:50.850Z,1.77
2018-12-08T18:30:20.327Z,1.90
2018-12-08T18:32:49.740Z,1.40
2018-12-08T18:35:19.173Z,1.40
2018-12-08T18:37:48.610Z,1.53
2018-12-08T18:40:18.071Z,1.60
2018-12-08T18:42:47.454Z,1.60
2018-12-08T18:45:17.554Z,1.33
2018-12-08T18:47:46.984Z,1.30
2018-12-08T18:50:16.729Z,1.60
2018-12-08T18:52:46.285Z,1.10
2018-12-08T18:55:16.245Z,1.37
2018-12-08T18:57:46.126Z,1.10
2018-12-08T19:00:16.378Z,1.40
2018-12-08T19:02:45.874Z,1.60
2018-12-08T19:05:15.245Z,1.67
2018-12-08T19:07:44.843Z,1.17
2018-12-08T19:10:14.268Z,1.10
2018-12-08T19:12:43.671Z,0.90
2018-12-08T19:15:14.227Z,1.10
2018-12-08T19:17:44.182Z,1.17
2018-12-08T19:20:14.152Z,1.57
2018-12-08T19:22:43.502Z,1.20
2018-12-08T19:25:13.020Z,1.20
2018-12-08T19:27:42.454Z,1.20
2018-12-08T19:30:12.429Z,1.70
2018-12-08T19:32:42.446Z,1.40
2018-12-08T19:35:11.886Z,1.40
2018-12-08T19:37:41.793Z,1.47
2018-12-08T19:40:11.319Z,1.30
2018-12-08T19:42:41.160Z,1.57
2018-12-08T19:45:11.346Z,1.40
2018-12-08T19:47:41.082Z,1.40
2018-12-08T19:50:10.512Z,1.50
2018-12-08T19:52:39.918Z,1.40
2018-12-08T19:55:09.295Z,1.73
2018-12-08T19:57:38.802Z,1.32
2018-12-08T20:00:11.691Z,1.70
2018-12-08T20:02:41.098Z,1.37
2018-12-08T20:05:10.497Z,1.27
2018-12-08T20:07:39.835Z,1.20
2018-12-08T20:10:09.187Z,1.17
2018-12-08T20:12:38.616Z,0.98
2018-12-08T20:15:11.719Z,1.10
2018-12-08T20:17:41.127Z,1.67
2018-12-08T20:20:10.576Z,1.70
2018-12-08T20:22:39.993Z,1.20
2018-12-08T20:25:10.143Z,1.17
2018-12-08T20:27:39.777Z,1.20
2018-12-08T20:30:09.802Z,1.63
2018-12-08T20:32:39.179Z,1.53
2018-12-08T20:35:08.574Z,1.47
2018-12-08T20:37:38.418Z,1.35
2018-12-08T20:40:09.087Z,2.00
2018-12-08T20:42:38.732Z,1.35
2018-12-08T20:45:08.823Z,1.00
2018-12-08T20:47:38.312Z,1.27
2018-12-08T20:50:08.619Z,1.40
2018-12-08T20:52:38.449Z,1.10
2018-12-08T20:55:08.459Z,1.30
2018-12-08T20:57:37.900Z,1.20
2018-12-08T21:00:08.439Z,1.30
2018-12-08T21:02:38.031Z,1.33
2018-12-08T21:05:08.265Z,1.00
2018-12-08T21:07:37.762Z,1.17
2018-12-08T21:10:07.631Z,1.30
2018-12-08T21:12:37.757Z,1.13
2018-12-08T21:15:07.394Z,1.10
2018-12-08T21:17:36.781Z,0.70
2018-12-08T21:20:07.792Z,1.80
2018-12-08T21:22:37.568Z,0.90
2018-12-08T21:25:07.068Z,0.60
2018-12-08T21:27:36.604Z,0.90
2018-12-08T21:30:06.401Z,1.17
2018-12-08T21:32:36.694Z,0.80
2018-12-08T21:35:06.205Z,1.37
2018-12-08T21:37:36.083Z,0.87
2018-12-08T21:40:11.021Z,0.90
2018-12-08T21:42:40.961Z,1.10
2018-12-08T21:45:10.540Z,1.32
2018-12-08T21:47:40.571Z,1.10
2018-12-08T21:50:09.961Z,1.10
2018-12-08T21:52:45.399Z,1.63
2018-12-08T21:55:15.023Z,1.07
2018-12-08T21:57:44.717Z,1.42
2018-12-08T22:00:14.969Z,1.33
2018-12-08T22:02:44.375Z,1.33
2018-12-08T22:05:13.979Z,1.67
2018-12-08T22:07:43.334Z,1.73
2018-12-08T22:10:12.834Z,1.27
2018-12-08T22:12:42.391Z,1.40
2018-12-08T22:15:15.664Z,1.60
2018-12-08T22:17:46.509Z,1.60
2018-12-08T22:20:15.929Z,1.87
2018-12-08T22:22:45.475Z,2.17
2018-12-08T22:25:14.858Z,2.40
2018-12-08T22:27:44.354Z,2.43
2018-12-08T22:30:14.599Z,2.37
2018-12-08T22:32:44.227Z,2.83
2018-12-08T22:35:14.219Z,2.47
2018-12-08T22:37:43.647Z,2.03
2018-12-08T22:40:13.754Z,2.20
2018-12-08T22:42:43.153Z,2.10
2018-12-08T22:45:13.062Z,1.90
2018-12-08T22:47:42.536Z,2.50
2018-12-08T22:50:15.205Z,2.77
2018-12-08T22:52:44.611Z,2.60
2018-12-08T22:55:14.658Z,2.40
2018-12-08T22:57:44.382Z,2.10
2018-12-08T23:00:25.726Z,2.03
2018-12-08T23:02:55.680Z,2.50
2018-12-08T23:05:25.667Z,2.50
2018-12-08T23:07:55.431Z,2.33
2018-12-08T23:10:25.275Z,2.37
2018-12-08T23:12:55.714Z,2.87
2018-12-08T23:15:25.126Z,1.80
2018-12-08T23:17:55.043Z,1.80
2018-12-08T23:20:25.227Z,2.63
2018-12-08T23:22:54.886Z,2.53
2018-12-08T23:25:24.222Z,2.10
2018-12-08T23:27:53.631Z,2.70
2018-12-08T23:30:23.171Z,2.40
2018-12-08T23:32:52.547Z,2.87
2018-12-08T23:35:22.726Z,1.92
2018-12-08T23:37:52.383Z,3.13
2018-12-08T23:40:22.637Z,2.30
2018-12-08T23:42:52.090Z,2.20
2018-12-08T23:45:22.708Z,2.23
2018-12-08T23:47:52.154Z,1.70
2018-12-08T23:50:22.762Z,2.53
2018-12-08T23:52:52.492Z,2.30
2018-12-08T23:55:22.806Z,2.90
2018-12-08T23:57:52.411Z,1.87
